Flight Track Log - Related Links

Times and Time Zones

All times are in EST time to prevent confusion due to time zone crossing. See the SWA9013 flight status page for this flight to view local times or setup timezone preferences in your user account.

Time Position Orientation Groundspeed Altitude Reporting Facility
EST Latitude Longitude Course Direction KTS MPH feet Rate Location/Type
Tue 12:41:16 AM 37.3833 -121.9500 332° Northwest 160 184 2,000  Level Northern Cal TRACON
Tue 12:42:16 AM 37.4333 -121.9833 332° Northwest 208 239 4,900 1,500 Climbing Northern Cal TRACON
Tue 12:43:16 AM 37.4167 -121.9167 107° East 221 254 5,000 947 Climbing Northern Cal TRACON
Tue 12:44:10 AM 37.3833 -121.8667 130° Southeast 220 253 6,700 2,422 Climbing Northern Cal TRACON
Tue 12:45:05 AM 37.3350 -121.8219 144° Southeast 245 282 9,400 3,259 Climbing Oakland Center
Tue 12:46:06 AM 37.2786 -121.7558 137° Southeast 307 353 13,000 3,787 Climbing Oakland Center
Tue 12:47:07 AM 37.1864 -121.6525 138° Southeast 375 432 17,100 3,738 Climbing Oakland Center
Tue 12:48:08 AM 37.1028 -121.5586 138° Southeast 400 460 20,600 3,049 Climbing Oakland Center
Tue 12:49:09 AM 37.0203 -121.4700 139° Southeast 426 490 23,300 2,803 Climbing Oakland Center
Tue 12:50:10 AM 36.9250 -121.3628 138° Southeast 457 526 26,300 2,951 Climbing Oakland Center
Tue 12:51:11 AM 36.8294 -121.2567 138° Southeast 459 528 29,300 2,607 Climbing Oakland Center
Tue 12:52:12 AM 36.7239 -121.1417 139° Southeast 478 550 31,600 2,331 Climbing Oakland Center
Tue 12:53:12 AM 36.6200 -121.0286 139° Southeast 495 570 34,000 2,529 Climbing Oakland Center
Tue 12:54:13 AM 36.5183 -120.9167 138° Southeast 490 564 36,700 2,410 Climbing Oakland Center
Tue 12:55:14 AM 36.4203 -120.8089 138° Southeast 475 547 38,900 1,131 Climbing Oakland Center
Tue 12:56:15 AM 36.3211 -120.7022 139° Southeast 473 544 39,000 49 Climbing Oakland Center
Tue 12:57:16 AM 36.2206 -120.5942 139° Southeast 476 548 39,000  Level Oakland Center
Tue 12:58:17 AM 36.1019 -120.4647 139° Southeast 475 547 39,000  Level Oakland Center
Tue 12:59:18 AM 36.0022 -120.3567 139° Southeast 476 548 39,000  Level Oakland Center
Tue 01:00:19 AM 35.9017 -120.2500 139° Southeast 475 547 39,000  Level Oakland Center
Tue 01:01:20 AM 35.8008 -120.1425 139° Southeast 475 547 39,000  Level Oakland Center
Tue 01:02:21 AM 35.7000 -120.0344 139° Southeast 477 549 39,000  Level Oakland Center
Tue 01:03:13 AM 35.6164 -119.9517 141° Southeast 474 545 39,000  Level Los Angeles Center
Tue 01:04:14 AM 35.5075 -119.8572 145° Southeast 475 547 39,000  Level Los Angeles Center
Tue 01:05:15 AM 35.3992 -119.7636 145° Southeast 473 544 39,000  Level Los Angeles Center
Tue 01:06:16 AM 35.2914 -119.6714 145° Southeast 472 543 39,000  Level Los Angeles Center
Tue 01:07:17 AM 35.1836 -119.5800 145° Southeast 470 541 39,000  Level Los Angeles Center
Tue 01:08:17 AM 35.0778 -119.4883 145° Southeast 466 536 39,000 -793 Level Los Angeles Center
Tue 01:09:18 AM 34.9717 -119.3986 145° Southeast 463 533 37,400 -2,016 Descending Los Angeles Center
Tue 01:10:19 AM 34.8686 -119.3106 145° Southeast 455 524 34,900 -2,508 Descending Los Angeles Center
Tue 01:11:20 AM 34.7642 -119.2211 145° Southeast 459 528 32,300 -2,410 Descending Los Angeles Center
Tue 01:12:21 AM 34.6600 -119.1328 145° Southeast 457 526 30,000 -2,311 Descending Los Angeles Center
Tue 01:13:22 AM 34.5461 -119.0411 146° Southeast 452 520 27,600 -2,262 Descending Los Angeles Center
Tue 01:14:23 AM 34.4447 -118.9569 146° Southeast 444 511 25,400 -2,164 Descending Los Angeles Center
Tue 01:15:24 AM 34.3433 -118.8772 147° Southeast 435 501 23,200 -2,132 Descending Los Angeles Center
Tue 01:16:24 AM 34.2361 -118.8364 163° South 402 463 21,100 -2,033 Descending Los Angeles Center
Tue 01:17:25 AM 34.1342 -118.8003 164° South 384 442 19,100 -2,164 Descending Los Angeles Center
Tue 01:18:26 AM 34.0214 -118.7583 163° South 369 425 16,700 -2,213 Descending Los Angeles Center
Tue 01:19:27 AM 33.9272 -118.7242 163° South 358 412 14,600 -1,328 Descending Los Angeles Center
Tue 01:20:28 AM 33.8319 -118.6892 163° South 335 386 14,000 -492 Descending Los Angeles Center
Tue 01:21:29 AM 33.7478 -118.6597 164° South 331 381 13,600 -694 Descending Los Angeles Center
Tue 01:22:29 AM 33.6606 -118.6283 163° South 331 381 12,600 -992 Descending Los Angeles Center
Tue 01:23:30 AM 33.5775 -118.5908 159° South 323 372 11,600 -1,082 Descending Los Angeles Center
Tue 01:24:31 AM 33.5414 -118.5019 116° Southeast 329 379 10,400 -1,180 Descending Los Angeles Center
Tue 01:25:32 AM 33.5519 -118.3986 83° East 318 366 9,200 -1,190 Descending Los Angeles Center
Tue 01:26:32 AM 33.5731 -118.3092 74° East 306 352 8,000 -1,289 Descending Los Angeles Center
Tue 01:27:33 AM 33.6219 -118.2114 59° Northeast 292 336 6,600 -1,279 Descending Los Angeles Center
Tue 01:28:34 AM 33.6639 -118.1339 57° Northeast 285 328 5,400 -992 Descending Los Angeles Center
Tue 01:29:34 AM 33.7044 -118.0608 56° Northeast 271 312 4,600 -1,041 Descending Los Angeles Center
Tue 01:30:35 AM 33.7436 -117.9867 58° Northeast 266 306 3,300 -1,033 Descending Los Angeles Center
Tue 01:31:36 AM 33.7750 -117.9219 60° Northeast 246 283 2,500 -496 Descending Los Angeles Center
Tue 01:32:36 AM 33.7706 -117.8650 95° East 184 212 2,300 -541 Descending Los Angeles Center
Tue 01:33:49 AM 33.7464 -117.8308 130° Southeast 147 169 1,300 -716 Descending Los Angeles Center
Tue 01:34:50 AM 33.7086 -117.8464 199° South 127 146 700 -590 Descending Los Angeles Center
Tue 01:37:00 AM 33.6757 -117.8682 132° Southeast  Level Estimated
Tue 01:44:00 AM 33.6757 -117.8682 132° Southeast  Level Estimated

Login

Don't have an account? Register now (free) for customized features, flight alerts, and more!